Time;durP1;ratioP1;P1;durP2;ratioP2;P2;SDS_P1;SDS_P2;PMS_P1;PMS_P2;Temp;Humidity;BMP_temperature;BMP_pressure;BME280_temperature;BME280_humidity;BME280_pressure;Samples;Min_cycle;Max_cycle;Signal;HPM_P1;HPM_P2
2022/01/06 00:00:07;;;;;;;36.95;23.23;;;;;;;4.85;75.07;99410.44;5088373;28;20043;-20
2022/01/06 00:02:32;;;;;;;38.33;23.58;;;;;;;5.03;73.63;99427.34;5088276;28;20040;-19
2022/01/06 00:04:58;;;;;;;37.03;22.92;;;;;;;5.02;74.00;99444.22;5088117;28;20036;-19
2022/01/06 00:07:23;;;;;;;34.00;23.95;;;;;;;4.78;75.25;99447.38;5088098;28;20039;-20
2022/01/06 00:09:50;;;;;;;41.97;26.02;;;;;;;4.50;77.71;99450.09;5088389;28;20454;-20
2022/01/06 00:12:18;;;;;;;40.45;25.52;;;;;;;4.40;79.37;99445.97;5088267;28;20043;-21
2022/01/06 00:23:23;;;;;;;38.90;23.52;;;;;;;4.52;77.30;99432.22;5088198;28;20423;-20
2022/01/06 00:25:27;;;;;;;40.78;25.88;;;;;;;4.94;77.17;99448.88;5070790;28;20139;-19
2022/01/06 00:27:53;;;;;;;36.38;22.98;;;;;;;4.82;76.53;99430.94;5088011;28;20032;-19
2022/01/06 00:30:18;;;;;;;37.90;22.38;;;;;;;4.52;75.70;99421.66;5087958;28;20020;-19
2022/01/06 00:32:44;;;;;;;32.50;20.35;;;;;;;4.99;73.49;99433.25;5087998;28;20570;-19
2022/01/06 00:35:09;;;;;;;33.33;20.67;;;;;;;4.77;72.50;99435.19;5087880;28;20092;-19
2022/01/06 00:37:35;;;;;;;36.80;22.80;;;;;;;4.55;73.07;99437.09;5087819;28;20035;-19
2022/01/06 00:40:00;;;;;;;34.55;20.77;;;;;;;4.78;72.12;99447.38;5087821;28;20024;-19
2022/01/06 00:42:25;;;;;;;38.88;23.20;;;;;;;4.85;71.63;99453.50;5087831;28;20028;-19
2022/01/06 00:44:51;;;;;;;41.60;23.73;;;;;;;4.53;73.29;99444.41;5087834;28;20554;-20
2022/01/06 00:47:20;;;;;;;41.95;28.70;;;;;;;4.73;72.93;99447.97;5087895;28;20036;-20
2022/01/06 00:49:46;;;;;;;41.83;26.98;;;;;;;4.77;71.40;99429.91;5087879;28;20795;-20
2022/01/06 00:52:11;;;;;;;38.72;25.42;;;;;;;4.85;71.79;99452.69;5090533;28;20050;-20
2022/01/06 00:54:37;;;;;;;49.08;29.30;;;;;;;4.40;74.76;99445.97;5091788;28;20024;-21
2022/01/06 00:57:02;;;;;;;46.97;28.77;;;;;;;3.94;75.51;99449.09;5092190;28;20064;-19
2022/01/06 00:59:28;;;;;;;43.17;26.17;;;;;;;3.33;77.96;99440.81;5091697;28;20027;-19
2022/01/06 01:01:53;;;;;;;41.50;24.70;;;;;;;3.28;77.91;99440.56;5091997;28;20105;-19
2022/01/06 01:04:19;;;;;;;43.13;25.80;;;;;;;3.98;75.70;99445.06;5092044;28;20044;-19
2022/01/06 01:06:44;;;;;;;55.03;35.65;;;;;;;4.03;75.09;99442.66;5091376;28;20077;-19
2022/01/06 01:09:10;;;;;;;49.75;30.40;;;;;;;4.08;74.35;99406.97;5091136;28;20031;-19
2022/01/06 01:11:35;;;;;;;50.10;30.13;;;;;;;4.13;75.05;99436.25;5091453;28;20032;-19
2022/01/06 01:14:17;;;;;;;61.88;40.83;;;;;;;4.08;74.98;99436.00;5091396;28;20024;-19
2022/01/06 01:16:50;;;;;;;46.80;29.80;;;;;;;3.82;74.95;99437.41;5091471;28;20121;-19
2022/01/06 01:19:15;;;;;;;55.92;30.75;;;;;;;3.30;75.69;99438.56;5090888;28;20109;-19
2022/01/06 01:21:41;;;;;;;52.97;30.35;;;;;;;3.93;73.67;99439.53;5091708;28;20035;-19
2022/01/06 01:24:07;;;;;;;55.63;32.15;;;;;;;3.96;75.31;99443.63;5091711;28;20032;-19
2022/01/06 01:26:32;;;;;;;61.42;36.63;;;;;;;4.13;74.16;99438.88;5091368;28;20077;-20
2022/01/06 01:28:57;;;;;;;48.67;29.45;;;;;;;3.85;73.09;99436.22;5091290;28;20494;-20
2022/01/06 01:31:28;;;;;;;44.58;28.27;;;;;;;3.85;74.41;99442.31;5091062;28;20403;-20
2022/01/06 01:33:56;;;;;;;52.65;30.85;;;;;;;3.75;73.77;99420.72;5072678;28;20093;-20
2022/01/06 01:36:22;;;;;;;49.45;29.90;;;;;;;3.27;75.78;99428.38;5091075;28;20039;-21
2022/01/06 01:38:47;;;;;;;39.83;24.73;;;;;;;2.71;76.12;99423.69;5090976;28;20028;-20
2022/01/06 01:41:13;;;;;;;64.25;35.40;;;;;;;2.64;76.96;99423.63;5090628;28;20032;-19
2022/01/06 01:43:38;;;;;;;42.97;23.65;;;;;;;2.00;79.76;99422.34;5091015;28;20044;-19
2022/01/06 01:46:14;;;;;;;39.58;22.38;;;;;;;2.61;77.75;99414.25;5090915;28;20471;-20
2022/01/06 01:48:44;;;;;;;39.90;25.65;;;;;;;2.95;76.33;99402.31;5090726;28;20063;-19
2022/01/06 01:51:09;;;;;;;49.30;29.85;;;;;;;3.07;77.23;99418.44;5090540;28;20036;-20
2022/01/06 01:53:38;;;;;;;51.83;30.80;;;;;;;3.37;75.06;99390.19;5090736;28;20039;-20
2022/01/06 01:56:10;;;;;;;53.88;31.98;;;;;;;3.58;73.93;99407.00;5090856;28;20075;-20
2022/01/06 01:58:36;;;;;;;60.05;33.58;;;;;;;3.82;72.96;99396.03;5072513;28;20044;-20
2022/01/06 02:01:02;;;;;;;54.50;33.50;;;;;;;3.66;73.23;99413.94;5090184;28;20028;-19
2022/01/06 02:03:28;;;;;;;53.72;32.10;;;;;;;3.79;72.62;99400.88;5090027;28;20115;-20
2022/01/06 02:05:53;;;;;;;54.22;33.15;;;;;;;3.30;74.66;99409.56;5090315;28;20028;-20
2022/01/06 02:08:18;;;;;;;54.20;30.35;;;;;;;3.13;75.15;99380.03;5072092;28;20039;-20
2022/01/06 02:10:44;;;;;;;51.60;30.02;;;;;;;3.63;73.91;99396.69;5090634;28;20028;-20
2022/01/06 02:13:09;;;;;;;56.47;33.35;;;;;;;3.07;75.94;99397.38;5090424;28;20054;-20
2022/01/06 02:15:35;;;;;;;61.42;34.63;;;;;;;3.60;74.62;99391.81;5090226;28;20039;-19
2022/01/06 02:18:00;;;;;;;63.78;35.40;;;;;;;3.55;74.20;99395.00;5090253;28;20060;-19
2022/01/06 02:20:26;;;;;;;57.42;35.40;;;;;;;3.52;73.90;99373.47;5072057;28;20035;-19
2022/01/06 02:22:52;;;;;;;56.08;35.92;;;;;;;3.78;73.62;99396.59;5090236;28;20047;-20
2022/01/06 02:25:35;;;;;;;63.80;35.80;;;;;;;3.72;73.73;99403.47;5089766;28;20055;-20
2022/01/06 02:28:02;;;;;;;61.17;34.63;;;;;;;3.72;73.25;99410.53;5090646;28;20035;-20
2022/01/06 02:30:28;;;;;;;61.60;35.05;;;;;;;3.38;74.16;99401.53;5090000;28;20032;-19
2022/01/06 02:32:54;;;;;;;60.05;33.53;;;;;;;3.53;73.04;99401.47;5090207;28;20090;-19
2022/01/06 02:35:21;;;;;;;63.67;36.22;;;;;;;3.62;73.17;99385.31;5089261;28;20056;-19
2022/01/06 02:37:47;;;;;;;67.03;38.83;;;;;;;3.71;73.00;99404.47;5089810;28;20031;-20
2022/01/06 02:40:17;;;;;;;64.20;37.60;;;;;;;3.26;74.01;99380.13;5089961;28;20402;-19
2022/01/06 02:42:48;;;;;;;64.63;36.20;;;;;;;3.24;74.54;99403.22;5071416;28;20062;-19
2022/01/06 02:45:14;;;;;;;64.20;35.50;;;;;;;3.24;74.26;99391.88;5089495;28;20035;-20
2022/01/06 02:47:39;;;;;;;61.63;33.78;;;;;;;2.39;76.48;99405.47;5089624;28;20040;-21
2022/01/06 02:50:05;;;;;;;52.88;30.85;;;;;;;1.85;78.15;99424.09;5089865;28;20059;-19
2022/01/06 02:52:31;;;;;;;57.03;31.17;;;;;;;2.35;76.12;99391.06;5089606;28;20470;-20
2022/01/06 02:54:56;;;;;;;59.60;34.67;;;;;;;3.01;74.73;99404.19;5089630;28;20078;-20
2022/01/06 02:57:22;;;;;;;56.50;33.15;;;;;;;3.18;73.86;99388.97;5089481;28;20036;-19
2022/01/06 02:59:47;;;;;;;47.95;30.20;;;;;;;2.68;73.86;99403.81;5089422;28;20032;-19
2022/01/06 03:02:13;;;;;;;56.47;32.28;;;;;;;2.65;74.77;99408.63;5089458;28;20055;-20
2022/01/06 03:04:38;;;;;;;60.42;33.90;;;;;;;2.34;75.84;99418.34;5089328;28;20085;-20
2022/01/06 03:07:03;;;;;;;54.47;31.10;;;;;;;2.11;77.35;99412.38;5089021;28;20405;-19
2022/01/06 03:09:38;;;;;;;50.17;31.27;;;;;;;2.28;76.79;99398.03;5089338;28;20074;-19
2022/01/06 03:12:06;;;;;;;46.38;26.83;;;;;;;1.99;77.04;99398.84;5089161;28;20040;-19
2022/01/06 03:14:32;;;;;;;44.72;29.67;;;;;;;1.98;77.85;99413.81;5089247;28;20024;-20
2022/01/06 03:16:58;;;;;;;42.65;27.13;;;;;;;1.69;79.02;99398.75;5088657;28;20039;-19
2022/01/06 03:19:23;;;;;;;41.67;26.33;;;;;;;1.39;79.42;99424.16;5088968;28;20039;-19
2022/01/06 03:21:49;;;;;;;43.00;27.95;;;;;;;1.40;79.44;99416.06;5070901;28;20040;-19
2022/01/06 03:24:16;;;;;;;43.17;26.52;;;;;;;1.32;79.90;99423.19;5089006;28;20502;-20
2022/01/06 03:26:41;;;;;;;40.50;25.80;;;;;;;1.18;79.39;99422.94;5071103;28;20046;-20
2022/01/06 03:29:07;;;;;;;41.58;25.35;;;;;;;1.12;79.97;99425.47;5070494;28;20119;-19
2022/01/06 03:31:32;;;;;;;45.15;27.05;;;;;;;1.45;78.84;99428.72;5088861;28;20032;-19
2022/01/06 03:33:58;;;;;;;46.05;27.35;;;;;;;1.58;79.19;99428.09;5070870;28;20028;-19
2022/01/06 03:36:23;;;;;;;46.38;27.05;;;;;;;1.22;79.17;99426.06;5088786;28;20414;-19
2022/01/06 03:38:49;;;;;;;45.72;26.58;;;;;;;1.67;77.79;99436.75;5088871;28;20032;-19
2022/01/06 03:41:14;;;;;;;43.72;27.67;;;;;;;2.31;75.87;99438.94;5088531;28;20036;-20
2022/01/06 03:43:39;;;;;;;51.50;29.30;;;;;;;2.46;75.19;99445.03;5088697;28;20032;-20
2022/01/06 03:46:05;;;;;;;58.03;31.50;;;;;;;2.25;76.00;99443.13;5088917;28;20040;-20
2022/01/06 03:48:30;;;;;;;51.50;28.45;;;;;;;2.40;75.64;99462.38;5088745;28;20042;-20
2022/01/06 03:50:56;;;;;;;44.60;28.30;;;;;;;2.56;75.17;99452.66;5088448;28;20082;-21
2022/01/06 03:53:21;;;;;;;424.33;205.70;;;;;;;2.61;74.09;99451.09;5088431;28;20039;-20
2022/01/06 03:55:47;;;;;;;103.75;63.55;;;;;;;2.57;74.04;99449.84;5088371;28;20495;-19
2022/01/06 03:58:12;;;;;;;74.63;48.00;;;;;;;2.40;75.06;99443.94;5088321;28;20031;-20
2022/01/06 04:00:38;;;;;;;51.35;31.35;;;;;;;2.30;75.56;99432.88;5088122;28;20036;-19
2022/01/06 04:03:03;;;;;;;63.15;42.70;;;;;;;2.90;73.47;99446.00;5088169;28;20126;-19
2022/01/06 04:05:31;;;;;;;48.90;29.55;;;;;;;2.70;74.28;99449.22;5088303;28;20032;-19
2022/01/06 04:07:57;;;;;;;53.67;31.52;;;;;;;2.80;73.08;99444.47;5070555;28;20411;-19
2022/01/06 04:10:22;;;;;;;53.50;30.52;;;;;;;2.64;73.95;99435.97;5088358;28;20032;-19
2022/01/06 04:12:48;;;;;;;48.97;30.77;;;;;;;2.55;74.29;99436.03;5088188;28;20407;-20
2022/01/06 04:15:14;;;;;;;54.58;31.33;;;;;;;2.54;75.18;99449.41;5087818;28;20028;-20
2022/01/06 04:17:40;;;;;;;49.60;30.67;;;;;;;2.18;76.26;99439.56;5053127;28;20506;-19
2022/01/06 04:20:07;;;;;;;56.28;34.58;;;;;;;2.76;74.25;99459.00;5088510;28;20156;-19
2022/01/06 04:22:33;;;;;;;60.45;33.17;;;;;;;2.62;74.44;99462.47;5087964;28;20410;-19
2022/01/06 04:24:58;;;;;;;58.50;32.22;;;;;;;2.37;74.51;99446.94;5087823;28;20119;-20
2022/01/06 04:27:24;;;;;;;51.00;30.55;;;;;;;1.94;77.46;99459.03;5087776;28;20040;-20
2022/01/06 04:29:49;;;;;;;75.80;43.45;;;;;;;1.39;79.76;99460.94;5087875;28;20874;-20
2022/01/06 04:32:15;;;;;;;57.35;32.88;;;;;;;2.09;77.95;99435.41;5088077;28;20408;-20
2022/01/06 04:34:40;;;;;;;61.33;34.83;;;;;;;1.55;79.48;99463.44;5086886;28;20148;-20
2022/01/06 04:37:06;;;;;;;55.72;30.63;;;;;;;1.65;78.41;99438.72;5087551;28;20042;-19
2022/01/06 04:39:31;;;;;;;55.45;31.02;;;;;;;2.12;76.98;99466.59;5087884;28;20024;-20
2022/01/06 04:41:57;;;;;;;53.30;31.50;;;;;;;1.72;78.69;99452.81;5070175;28;20564;-20
2022/01/06 04:44:22;;;;;;;52.40;30.65;;;;;;;2.11;77.65;99460.53;5087780;28;20020;-20
2022/01/06 04:46:48;;;;;;;50.20;28.45;;;;;;;1.58;78.69;99465.72;5087852;28;20032;-19
2022/01/06 04:49:13;;;;;;;49.25;27.75;;;;;;;1.33;78.97;99438.00;5069476;28;20020;-19
2022/01/06 04:51:39;;;;;;;48.67;28.92;;;;;;;1.72;77.81;99455.44;5087674;28;20036;-19
2022/01/06 04:54:04;;;;;;;52.40;31.55;;;;;;;1.88;77.11;99465.81;5087685;28;20408;-20
2022/01/06 04:56:36;;;;;;;51.05;30.42;;;;;;;1.23;77.85;99472.34;5087820;28;20051;-19
2022/01/06 04:59:03;;;;;;;66.05;31.70;;;;;;;1.69;76.84;99467.09;5087222;28;20024;-19
2022/01/06 05:01:28;;;;;;;57.03;32.38;;;;;;;1.84;77.23;99469.81;5087707;28;20107;-19
2022/01/06 05:03:54;;;;;;;56.78;35.13;;;;;;;2.24;75.08;99454.63;5087633;28;20624;-20
2022/01/06 05:06:19;;;;;;;53.88;31.67;;;;;;;2.09;75.49;99472.22;5087643;28;20473;-19
2022/01/06 05:08:44;;;;;;;61.05;36.85;;;;;;;2.04;74.35;99464.03;5087492;28;20036;-19
2022/01/06 05:11:10;;;;;;;60.83;35.22;;;;;;;1.32;76.88;99473.94;5087184;28;20089;-20
2022/01/06 05:13:35;;;;;;;55.72;32.67;;;;;;;0.64;78.60;99446.53;5087618;28;20028;-20
2022/01/06 05:16:01;;;;;;;54.75;32.88;;;;;;;1.42;77.48;99491.28;5087930;28;20032;-19
2022/01/06 05:18:26;;;;;;;63.85;38.30;;;;;;;1.39;76.99;99482.75;5087254;28;20732;-20
2022/01/06 05:20:52;;;;;;;64.00;37.20;;;;;;;1.20;76.78;99484.00;5087389;28;20028;-19
2022/01/06 05:23:19;;;;;;;64.97;38.75;;;;;;;1.33;76.00;99483.47;5087352;28;20044;-20
2022/01/06 05:25:44;;;;;;;70.30;40.20;;;;;;;1.54;76.45;99488.06;5087578;28;20043;-19
2022/01/06 05:28:10;;;;;;;58.65;36.42;;;;;;;1.63;74.86;99445.97;5087479;28;20028;-19
2022/01/06 05:30:35;;;;;;;105.45;56.83;;;;;;;1.19;77.75;99485.00;5087188;28;20089;-19
2022/01/06 05:33:01;;;;;;;68.93;40.10;;;;;;;1.37;77.31;99482.13;5087376;28;20024;-19
2022/01/06 05:35:26;;;;;;;76.38;43.70;;;;;;;1.69;75.33;99489.94;5087397;28;20028;-20
2022/01/06 05:37:52;;;;;;;61.42;37.92;;;;;;;1.89;75.41;99480.59;5087890;28;20028;-20
2022/01/06 05:40:17;;;;;;;59.28;37.35;;;;;;;1.49;75.98;99503.56;5090896;28;20089;-19
2022/01/06 05:42:42;;;;;;;67.85;38.53;;;;;;;1.40;75.72;99483.56;5090976;28;20047;-19
2022/01/06 05:45:08;;;;;;;87.70;49.80;;;;;;;1.86;73.88;99488.00;5072567;28;20032;-20
2022/01/06 05:47:34;;;;;;;64.68;41.30;;;;;;;1.46;74.97;99493.38;5090914;28;20077;-22
2022/01/06 05:49:59;;;;;;;60.58;36.00;;;;;;;1.51;75.58;99493.69;5091201;28;20028;-22
2022/01/06 05:52:25;;;;;;;73.57;41.50;;;;;;;1.36;75.28;99511.19;5091104;28;20800;-22
2022/01/06 05:54:50;;;;;;;67.68;40.17;;;;;;;0.87;76.47;99509.59;5090878;28;20039;-21
2022/01/06 05:57:16;;;;;;;67.00;37.08;;;;;;;1.27;75.96;99493.81;5090714;28;20036;-22
2022/01/06 05:59:42;;;;;;;70.68;37.33;;;;;;;1.42;75.57;99492.09;5090464;28;20035;-22
2022/01/06 06:02:07;;;;;;;62.30;36.60;;;;;;;1.68;75.33;99504.09;5090438;28;20131;-22
2022/01/06 06:04:33;;;;;;;65.60;35.15;;;;;;;1.67;76.03;99507.72;5091018;28;20031;-22
2022/01/06 06:06:58;;;;;;;96.55;60.05;;;;;;;1.52;77.38;99508.47;5090220;28;20032;-22
2022/01/06 06:09:24;;;;;;;77.30;47.35;;;;;;;1.45;77.41;99515.41;5090471;28;20484;-22
2022/01/06 06:11:49;;;;;;;67.05;40.47;;;;;;;1.55;78.04;99523.06;5090710;28;20093;-22
2022/01/06 06:14:15;;;;;;;72.55;41.20;;;;;;;1.75;76.28;99524.25;5090479;28;20031;-21
2022/01/06 06:16:41;;;;;;;65.75;39.65;;;;;;;1.51;77.50;99511.25;5090384;28;20514;-22
2022/01/06 06:19:06;;;;;;;67.85;41.45;;;;;;;1.34;78.51;99528.94;5089660;28;20056;-21
2022/01/06 06:21:32;;;;;;;83.72;46.85;;;;;;;1.25;78.42;99528.16;5090377;28;20093;-22
2022/01/06 06:23:57;;;;;;;75.00;43.58;;;;;;;1.70;77.44;99531.03;5090293;28;20168;-22
2022/01/06 06:26:23;;;;;;;69.78;39.97;;;;;;;1.80;77.49;99537.69;5090387;28;20028;-22
2022/01/06 06:28:48;;;;;;;64.15;39.17;;;;;;;2.17;76.64;99511.59;5090038;28;20039;-22
2022/01/06 06:31:14;;;;;;;66.30;37.05;;;;;;;2.18;76.00;99526.38;5090071;28;20032;-22
2022/01/06 06:33:39;;;;;;;64.15;39.97;;;;;;;1.59;78.30;99540.13;5089988;28;20120;-22
2022/01/06 06:36:05;;;;;;;71.93;41.10;;;;;;;1.27;79.10;99522.72;5089883;28;20545;-22
2022/01/06 06:38:30;;;;;;;68.28;40.47;;;;;;;1.19;79.80;99550.66;5090037;28;20024;-23
2022/01/06 06:40:56;;;;;;;52.33;30.52;;;;;;;0.69;79.90;99525.56;5089988;28;20395;-22
2022/01/06 06:43:21;;;;;;;58.47;35.05;;;;;;;1.49;78.19;99550.03;5089756;28;20111;-21
2022/01/06 06:45:47;;;;;;;57.08;31.92;;;;;;;1.13;79.23;99561.03;5089863;28;20423;-22
2022/01/06 06:48:13;;;;;;;46.88;28.70;;;;;;;1.12;78.75;99565.44;5071670;28;20028;-22
2022/01/06 06:50:38;;;;;;;52.10;30.67;;;;;;;0.56;80.53;99549.69;5089232;28;20035;-22
2022/01/06 06:53:04;;;;;;;60.63;34.50;;;;;;;1.12;80.50;99548.88;5090092;28;20055;-22
2022/01/06 06:55:30;;;;;;;68.18;38.67;;;;;;;1.29;79.77;99560.13;5089538;28;20044;-23
2022/01/06 06:57:55;;;;;;;63.63;37.65;;;;;;;1.66;78.32;99561.28;5089469;28;20024;-22
2022/01/06 07:00:21;;;;;;;70.65;42.00;;;;;;;1.73;79.02;99562.22;5089471;28;20024;-22
2022/01/06 07:02:46;;;;;;;65.05;38.42;;;;;;;2.00;78.54;99561.72;5090218;28;20031;-22
2022/01/06 07:05:12;;;;;;;67.03;37.70;;;;;;;1.83;79.14;99541.78;5089116;28;20460;-22
2022/01/06 07:07:37;;;;;;;75.63;41.10;;;;;;;2.46;77.60;99557.41;5089477;28;20046;-22
2022/01/06 07:10:04;;;;;;;79.13;47.33;;;;;;;3.10;74.74;99541.09;5089389;28;20557;-23
2022/01/06 07:12:30;;;;;;;91.82;52.08;;;;;;;3.01;76.52;99566.72;5089714;28;20020;-22
2022/01/06 07:14:57;;;;;;;105.97;56.97;;;;;;;2.74;76.42;99555.00;5089482;28;20115;-22
2022/01/06 07:17:22;;;;;;;81.68;47.70;;;;;;;3.09;76.71;99574.53;5089220;28;20483;-22
2022/01/06 07:19:47;;;;;;;66.53;40.95;;;;;;;3.41;75.68;99572.47;5088978;28;20036;-20
2022/01/06 07:22:13;;;;;;;69.03;42.15;;;;;;;3.63;75.11;99574.16;5089322;28;20057;-19
2022/01/06 07:24:39;;;;;;;96.68;52.40;;;;;;;3.55;75.41;99587.44;5089315;28;20629;-20
2022/01/06 07:27:04;;;;;;;79.45;47.90;;;;;;;3.32;77.44;99587.59;5070540;28;20119;-19
2022/01/06 07:29:30;;;;;;;79.13;47.13;;;;;;;3.41;77.45;99588.28;5088824;28;20551;-19
2022/01/06 07:31:55;;;;;;;90.13;52.95;;;;;;;3.62;77.23;99592.81;5088960;28;20035;-21
2022/01/06 07:34:21;;;;;;;93.53;51.20;;;;;;;3.61;78.12;99578.78;5089287;28;20061;-20
2022/01/06 07:36:46;;;;;;;70.75;43.67;;;;;;;3.40;78.92;99590.13;5088799;28;20039;-20
2022/01/06 07:39:12;;;;;;;72.05;46.92;;;;;;;3.57;78.76;99585.44;5088997;28;20040;-20
2022/01/06 07:41:37;;;;;;;75.60;46.15;;;;;;;3.88;77.17;99594.91;5088994;28;20815;-20
2022/01/06 07:44:07;;;;;;;74.93;44.90;;;;;;;4.36;76.24;99597.81;5088842;28;20437;-19
2022/01/06 07:46:33;;;;;;;77.22;45.92;;;;;;;4.99;72.61;99591.81;5088939;28;20143;-19
2022/01/06 07:48:59;;;;;;;103.00;55.88;;;;;;;5.22;72.88;99584.41;5088646;28;20035;-20
2022/01/06 07:51:25;;;;;;;95.78;55.90;;;;;;;5.15;71.83;99580.91;5089151;28;20031;-19
2022/01/06 07:53:51;;;;;;;111.82;59.38;;;;;;;4.87;73.93;99586.22;5088539;28;20454;-19
2022/01/06 07:56:16;;;;;;;110.70;58.13;;;;;;;5.11;72.50;99562.97;5088367;28;20092;-20
2022/01/06 07:58:42;;;;;;;87.47;51.22;;;;;;;5.76;71.13;99600.47;5088555;28;20038;-19
2022/01/06 08:01:09;;;;;;;84.05;48.15;;;;;;;5.62;72.08;99581.13;5087570;28;20024;-20
2022/01/06 08:03:34;;;;;;;77.20;40.25;;;;;;;5.64;72.20;99589.69;5088383;28;20024;-19
2022/01/06 08:06:00;;;;;;;64.75;39.95;;;;;;;5.93;71.25;99583.25;5088336;28;20028;-20
2022/01/06 08:08:25;;;;;;;49.95;32.13;;;;;;;6.30;70.40;99610.22;5088292;28;20454;-19
2022/01/06 08:10:51;;;;;;;46.33;28.88;;;;;;;6.37;68.58;99594.31;5088562;28;20047;-20
2022/01/06 08:13:16;;;;;;;46.53;30.73;;;;;;;6.54;69.22;99600.88;5088055;28;20039;-20
2022/01/06 08:15:41;;;;;;;46.30;30.67;;;;;;;7.00;68.36;99596.53;5088301;28;20612;-21
2022/01/06 08:18:07;;;;;;;60.45;37.13;;;;;;;6.88;68.81;99591.03;5087927;28;20051;-19
2022/01/06 08:20:35;;;;;;;47.75;33.47;;;;;;;6.83;69.70;99602.25;5088124;28;20031;-20
2022/01/06 08:23:02;;;;;;;48.00;31.83;;;;;;;6.66;71.28;99601.06;5088019;28;20066;-21
2022/01/06 08:25:27;;;;;;;44.67;29.88;;;;;;;6.79;70.49;99602.88;5053437;28;20761;-19
2022/01/06 08:27:53;;;;;;;47.95;31.20;;;;;;;7.02;69.88;99599.78;5088315;28;20036;-19
2022/01/06 08:30:18;;;;;;;47.22;29.77;;;;;;;6.93;71.53;99588.59;5087893;28;20407;-19
2022/01/06 08:32:44;;;;;;;50.70;31.38;;;;;;;6.39;70.70;99548.06;5087914;28;20059;-20
2022/01/06 08:35:09;;;;;;;99.75;54.30;;;;;;;7.27;69.48;99591.97;5087807;28;20032;-19
2022/01/06 08:37:34;;;;;;;80.25;43.60;;;;;;;7.09;70.03;99590.00;5088232;28;20040;-20
2022/01/06 08:40:00;;;;;;;53.08;32.42;;;;;;;6.93;71.28;99577.19;5087664;28;20032;-19
2022/01/06 08:42:25;;;;;;;50.72;32.35;;;;;;;7.20;71.15;99589.34;5087964;28;20036;-19
2022/01/06 08:44:51;;;;;;;37.55;24.55;;;;;;;7.29;70.61;99587.28;5087970;28;20039;-19
2022/01/06 08:47:17;;;;;;;35.67;23.67;;;;;;;7.21;68.31;99583.03;5087609;28;20039;-20
2022/01/06 08:49:42;;;;;;;51.53;30.48;;;;;;;7.18;70.02;99594.03;5087916;28;20032;-21
2022/01/06 08:52:07;;;;;;;35.83;24.83;;;;;;;7.34;69.25;99595.44;5087853;28;20453;-19
2022/01/06 08:54:33;;;;;;;37.03;24.42;;;;;;;7.57;69.06;99610.84;5088327;28;20044;-20
2022/01/06 08:56:59;;;;;;;34.65;23.17;;;;;;;7.58;68.22;99601.88;5087655;28;20040;-20
2022/01/06 08:59:24;;;;;;;32.58;21.75;;;;;;;7.69;68.23;99607.56;5087684;28;20028;-20
2022/01/06 09:01:50;;;;;;;30.98;21.02;;;;;;;7.78;68.44;99617.69;5088007;28;20507;-19
2022/01/06 09:04:18;;;;;;;34.58;21.13;;;;;;;8.03;67.43;99617.78;5087774;28;20506;-19
2022/01/06 09:06:43;;;;;;;29.95;21.27;;;;;;;7.90;67.53;99620.50;5088215;28;20476;-20
2022/01/06 09:09:08;;;;;;;36.50;22.20;;;;;;;7.74;68.41;99619.13;5087531;28;20054;-19
2022/01/06 09:11:34;;;;;;;32.50;19.88;;;;;;;7.94;67.80;99627.00;5087885;28;20036;-20
2022/01/06 09:13:59;;;;;;;32.10;21.40;;;;;;;8.00;68.41;99618.19;5073575;28;20035;-19
2022/01/06 09:16:25;;;;;;;30.58;20.50;;;;;;;8.25;66.45;99612.13;5091910;28;20532;-20
2022/01/06 09:18:51;;;;;;;29.05;20.20;;;;;;;8.29;67.48;99615.97;5091326;28;20189;-19
2022/01/06 09:21:22;;;;;;;28.55;19.58;;;;;;;8.57;65.33;99612.16;5091196;28;20048;-20
2022/01/06 09:23:49;;;;;;;28.05;19.45;;;;;;;8.43;65.61;99598.13;5090988;28;20115;-19
2022/01/06 09:26:14;;;;;;;30.27;19.02;;;;;;;8.36;65.26;99584.88;5091213;28;20465;-19
2022/01/06 09:28:40;;;;;;;28.10;18.83;;;;;;;8.61;65.04;99594.72;5091627;28;20062;-19
2022/01/06 09:31:05;;;;;;;31.88;21.35;;;;;;;8.87;66.07;99587.53;5073160;28;20032;-20
2022/01/06 09:33:31;;;;;;;30.33;20.15;;;;;;;9.09;64.26;99596.72;5091383;28;20031;-19
2022/01/06 09:35:56;;;;;;;32.10;20.98;;;;;;;9.06;64.32;99586.53;5091368;28;20036;-19
2022/01/06 09:38:22;;;;;;;29.10;20.38;;;;;;;9.28;63.57;99599.41;5090863;28;20032;-19
2022/01/06 09:40:47;;;;;;;34.78;24.95;;;;;;;9.67;63.28;99586.66;5091202;28;20112;-20
2022/01/06 09:43:13;;;;;;;36.10;24.58;;;;;;;9.88;63.36;99588.03;5090709;28;20112;-22
2022/01/06 09:45:39;;;;;;;32.28;21.58;;;;;;;9.99;62.06;99582.75;5073118;28;20403;-24
2022/01/06 09:48:05;;;;;;;30.83;20.98;;;;;;;9.67;62.60;99584.00;5091275;28;20031;-22
2022/01/06 09:50:30;;;;;;;34.05;25.50;;;;;;;9.95;62.07;99584.25;5090942;28;20202;-22
2022/01/06 09:52:56;;;;;;;36.40;25.02;;;;;;;10.08;62.68;99593.09;5072605;28;20501;-24
2022/01/06 09:55:21;;;;;;;35.30;24.15;;;;;;;10.64;60.84;99597.16;5090858;28;20036;-22
2022/01/06 09:58:05;;;;;;;73.03;43.33;;;;;;;10.85;60.42;99596.59;5090486;28;20446;-22
2022/01/06 10:00:32;;;;;;;86.55;47.03;;;;;;;10.81;61.70;99592.75;5090746;28;20118;-22
2022/01/06 10:03:01;;;;;;;32.78;22.63;;;;;;;10.15;62.30;99593.78;5090382;28;20404;-22
2022/01/06 10:05:35;;;;;;;30.50;22.13;;;;;;;10.30;62.41;99601.38;5090547;28;20046;-22
2022/01/06 10:08:01;;;;;;;33.28;23.63;;;;;;;10.34;62.32;99592.72;5074095;28;20036;-22
2022/01/06 10:10:26;;;;;;;33.17;21.90;;;;;;;10.45;62.85;99599.91;5090543;28;20089;-22
2022/01/06 10:12:56;;;;;;;31.90;23.33;;;;;;;10.53;62.90;99596.09;5090361;28;20036;-22
2022/01/06 10:15:24;;;;;;;33.85;24.15;;;;;;;10.61;62.51;99593.09;5090618;28;20912;-22
2022/01/06 10:17:49;;;;;;;34.00;24.30;;;;;;;10.60;61.86;99585.31;5090326;28;20162;-22
2022/01/06 10:20:16;;;;;;;32.85;24.33;;;;;;;10.53;62.86;99582.78;5090335;28;20101;-22
2022/01/06 10:22:50;;;;;;;35.78;23.83;;;;;;;10.92;61.63;99571.66;5072455;28;20027;-22
2022/01/06 10:25:16;;;;;;;34.33;23.92;;;;;;;11.06;61.51;99579.16;5089238;28;20042;-22
2022/01/06 10:27:41;;;;;;;33.90;23.73;;;;;;;11.46;60.70;99577.56;5090074;28;20776;-22
2022/01/06 10:30:08;;;;;;;37.03;25.10;;;;;;;11.44;60.18;99574.34;5071897;28;20036;-22
2022/01/06 10:32:34;;;;;;;35.25;24.15;;;;;;;11.66;59.29;99577.16;5090030;28;20024;-22
2022/01/06 10:35:02;;;;;;;31.65;22.83;;;;;;;11.53;58.75;99567.59;5089938;28;20067;-23
2022/01/06 10:37:38;;;;;;;38.92;25.90;;;;;;;11.53;61.14;99554.22;5090528;28;20057;-22
2022/01/06 10:40:16;;;;;;;31.92;22.73;;;;;;;11.43;60.52;99562.03;5089630;28;20032;-21
2022/01/06 10:42:44;;;;;;;31.27;23.25;;;;;;;11.35;61.30;99549.06;5090251;28;20093;-23
2022/01/06 10:45:14;;;;;;;32.85;22.98;;;;;;;11.68;59.66;99536.88;5089688;28;20178;-22
2022/01/06 10:47:43;;;;;;;30.85;22.15;;;;;;;11.67;60.31;99562.78;5089882;28;20081;-22
2022/01/06 10:50:14;;;;;;;29.42;21.27;;;;;;;11.88;59.14;99561.28;5089718;28;20060;-22
2022/01/06 10:52:41;;;;;;;29.10;20.00;;;;;;;11.90;58.95;99535.19;5089785;28;20024;-22
2022/01/06 10:55:11;;;;;;;28.35;19.38;;;;;;;11.86;58.72;99555.38;5089486;28;20469;-22
2022/01/06 10:57:51;;;;;;;28.88;19.55;;;;;;;11.61;58.83;99548.50;5071545;28;20110;-22
2022/01/06 11:00:17;;;;;;;30.35;19.50;;;;;;;11.59;60.00;99531.91;5072146;28;20085;-22
2022/01/06 11:02:43;;;;;;;28.40;19.95;;;;;;;11.51;59.94;99550.19;5090192;28;20106;-22
2022/01/06 11:05:08;;;;;;;27.85;19.55;;;;;;;11.05;61.56;99534.88;5089390;28;20384;-21
2022/01/06 11:07:34;;;;;;;28.63;18.98;;;;;;;11.24;61.88;99530.19;5089445;28;20035;-22
2022/01/06 11:09:59;;;;;;;25.42;17.35;;;;;;;11.39;61.20;99520.84;5089514;28;20028;-23
2022/01/06 11:12:28;;;;;;;28.15;18.42;;;;;;;11.74;61.25;99531.38;5055094;28;20031;-22
2022/01/06 11:14:54;;;;;;;28.42;19.48;;;;;;;11.74;59.99;99520.69;5055575;28;20035;-22
2022/01/06 11:17:21;;;;;;;25.85;18.48;;;;;;;11.61;61.10;99513.78;5089107;28;20419;-22
2022/01/06 11:19:50;;;;;;;23.55;18.20;;;;;;;11.79;59.77;99495.94;5071312;28;20028;-22
2022/01/06 11:22:16;;;;;;;24.92;18.60;;;;;;;12.16;58.94;99520.38;5071035;28;20043;-22
2022/01/06 11:24:52;;;;;;;24.20;17.75;;;;;;;12.13;59.71;99496.00;5071150;28;20029;-23
2022/01/06 11:27:17;;;;;;;24.55;17.80;;;;;;;12.25;58.71;99510.91;5088906;28;20067;-21